sensor_id;sensor_type;location;lat;lon;timestamp;temperature;humidity
30063;DHT22;16889;67.864;24.990;2023-02-11T00:00:58;-10.00;99.90
30063;DHT22;16889;67.864;24.990;2023-02-11T00:05:44;-10.10;99.90
30063;DHT22;16889;67.864;24.990;2023-02-11T00:10:30;-10.20;99.90
30063;DHT22;16889;67.864;24.990;2023-02-11T00:15:16;-10.30;99.90
30063;DHT22;16889;67.864;24.990;2023-02-11T00:20:02;-10.30;99.90
30063;DHT22;16889;67.864;24.990;2023-02-11T00:24:48;-10.30;99.90
30063;DHT22;16889;67.864;24.990;2023-02-11T00:29:34;-10.40;99.90
30063;DHT22;16889;67.864;24.990;2023-02-11T00:34:21;-10.40;99.90
30063;DHT22;16889;67.864;24.990;2023-02-11T00:39:07;-10.40;99.90
30063;DHT22;16889;67.864;24.990;2023-02-11T00:43:53;-10.40;99.90
30063;DHT22;16889;67.864;24.990;2023-02-11T00:48:39;-10.40;99.90
30063;DHT22;16889;67.864;24.990;2023-02-11T00:53:25;-10.40;99.90
30063;DHT22;16889;67.864;24.990;2023-02-11T00:58:11;-10.50;99.90
30063;DHT22;16889;67.864;24.990;2023-02-11T01:02:57;-10.40;99.90
30063;DHT22;16889;67.864;24.990;2023-02-11T01:07:43;-10.50;99.90
30063;DHT22;16889;67.864;24.990;2023-02-11T01:12:29;-10.70;99.90
30063;DHT22;16889;67.864;24.990;2023-02-11T01:17:15;-10.80;99.90
30063;DHT22;16889;67.864;24.990;2023-02-11T01:22:01;-11.00;99.90
30063;DHT22;16889;67.864;24.990;2023-02-11T01:26:47;-11.00;99.90
30063;DHT22;16889;67.864;24.990;2023-02-11T01:31:33;-11.00;99.90
30063;DHT22;16889;67.864;24.990;2023-02-11T01:36:19;-11.10;99.90
30063;DHT22;16889;67.864;24.990;2023-02-11T01:41:08;-11.30;99.90
30063;DHT22;16889;67.864;24.990;2023-02-11T01:51:59;-11.40;99.90
30063;DHT22;16889;67.864;24.990;2023-02-11T01:56:20;-11.30;99.90
30063;DHT22;16889;67.864;24.990;2023-02-11T02:01:26;-11.30;99.90
30063;DHT22;16889;67.864;24.990;2023-02-11T02:06:18;-11.20;99.90
30063;DHT22;16889;67.864;24.990;2023-02-11T02:11:07;-11.10;99.90
30063;DHT22;16889;67.864;24.990;2023-02-11T02:15:56;-11.30;99.90
30063;DHT22;16889;67.864;24.990;2023-02-11T02:26:04;-11.90;99.90
30063;DHT22;16889;67.864;24.990;2023-02-11T02:41:20;-12.10;99.90
30063;DHT22;16889;67.864;24.990;2023-02-11T03:07:02;-11.80;99.90
30063;DHT22;16889;67.864;24.990;2023-02-11T03:11:23;-11.60;99.90
30063;DHT22;16889;67.864;24.990;2023-02-11T03:16:15;-11.50;99.90
30063;DHT22;16889;67.864;24.990;2023-02-11T03:21:04;-11.40;99.90
30063;DHT22;16889;67.864;24.990;2023-02-11T03:25:58;-11.30;99.90
30063;DHT22;16889;67.864;24.990;2023-02-11T03:31:27;-11.20;99.90
30063;DHT22;16889;67.864;24.990;2023-02-11T03:36:40;-11.10;99.90
30063;DHT22;16889;67.864;24.990;2023-02-11T03:41:25;-11.10;99.90
30063;DHT22;16889;67.864;24.990;2023-02-11T03:46:15;-11.10;99.90
30063;DHT22;16889;67.864;24.990;2023-02-11T03:51:05;-11.10;99.90
30063;DHT22;16889;67.864;24.990;2023-02-11T03:55:54;-11.10;99.90
30063;DHT22;16889;67.864;24.990;2023-02-11T04:00:42;-11.30;99.90
30063;DHT22;16889;67.864;24.990;2023-02-11T04:05:28;-11.50;99.90
30063;DHT22;16889;67.864;24.990;2023-02-11T04:10:14;-11.40;99.90
30063;DHT22;16889;67.864;24.990;2023-02-11T04:15:00;-11.40;99.90
30063;DHT22;16889;67.864;24.990;2023-02-11T04:19:46;-11.60;99.90
30063;DHT22;16889;67.864;24.990;2023-02-11T04:24:32;-11.80;99.90
30063;DHT22;16889;67.864;24.990;2023-02-11T04:29:18;-11.90;99.90
30063;DHT22;16889;67.864;24.990;2023-02-11T04:34:04;-12.10;99.90
30063;DHT22;16889;67.864;24.990;2023-02-11T04:38:50;-11.90;99.90
30063;DHT22;16889;67.864;24.990;2023-02-11T04:43:36;-11.70;99.90
30063;DHT22;16889;67.864;24.990;2023-02-11T04:48:22;-11.70;99.90
30063;DHT22;16889;67.864;24.990;2023-02-11T04:53:08;-11.60;99.90
30063;DHT22;16889;67.864;24.990;2023-02-11T04:57:54;-11.50;99.90
30063;DHT22;16889;67.864;24.990;2023-02-11T05:02:40;-11.40;99.90
30063;DHT22;16889;67.864;24.990;2023-02-11T05:07:26;-11.30;99.90
30063;DHT22;16889;67.864;24.990;2023-02-11T05:12:12;-11.20;99.90
30063;DHT22;16889;67.864;24.990;2023-02-11T05:16:58;-11.00;99.90
30063;DHT22;16889;67.864;24.990;2023-02-11T05:21:44;-10.90;99.90
30063;DHT22;16889;67.864;24.990;2023-02-11T05:26:30;-10.90;99.90
30063;DHT22;16889;67.864;24.990;2023-02-11T05:31:16;-10.90;99.90
30063;DHT22;16889;67.864;24.990;2023-02-11T05:36:08;-10.90;99.90
30063;DHT22;16889;67.864;24.990;2023-02-11T05:40:55;-11.00;99.90
30063;DHT22;16889;67.864;24.990;2023-02-11T05:45:40;-11.00;99.90
30063;DHT22;16889;67.864;24.990;2023-02-11T05:50:26;-10.90;99.90
30063;DHT22;16889;67.864;24.990;2023-02-11T05:55:12;-10.90;99.90
30063;DHT22;16889;67.864;24.990;2023-02-11T05:59:58;-10.90;99.90
30063;DHT22;16889;67.864;24.990;2023-02-11T06:04:44;-10.90;99.90
30063;DHT22;16889;67.864;24.990;2023-02-11T06:09:30;-10.90;99.90
30063;DHT22;16889;67.864;24.990;2023-02-11T06:14:16;-10.90;99.90
30063;DHT22;16889;67.864;24.990;2023-02-11T06:19:02;-11.00;99.90
30063;DHT22;16889;67.864;24.990;2023-02-11T06:23:48;-10.90;99.90
30063;DHT22;16889;67.864;24.990;2023-02-11T06:28:34;-10.80;99.90
30063;DHT22;16889;67.864;24.990;2023-02-11T06:33:20;-10.80;99.90
30063;DHT22;16889;67.864;24.990;2023-02-11T06:38:06;-10.70;99.90
30063;DHT22;16889;67.864;24.990;2023-02-11T06:42:52;-10.70;99.90
30063;DHT22;16889;67.864;24.990;2023-02-11T06:47:39;-10.70;99.90
30063;DHT22;16889;67.864;24.990;2023-02-11T06:52:25;-10.70;99.90
30063;DHT22;16889;67.864;24.990;2023-02-11T06:57:11;-10.70;99.90
30063;DHT22;16889;67.864;24.990;2023-02-11T07:01:57;-10.60;99.90
30063;DHT22;16889;67.864;24.990;2023-02-11T07:06:43;-11.00;99.90
30063;DHT22;16889;67.864;24.990;2023-02-11T07:11:29;-11.50;99.90
30063;DHT22;16889;67.864;24.990;2023-02-11T07:16:16;-11.70;99.90
30063;DHT22;16889;67.864;24.990;2023-02-11T07:21:08;-11.90;99.90
30063;DHT22;16889;67.864;24.990;2023-02-11T07:25:54;-12.00;99.90
30063;DHT22;16889;67.864;24.990;2023-02-11T07:30:40;-12.00;99.90
30063;DHT22;16889;67.864;24.990;2023-02-11T07:35:26;-11.90;99.90
30063;DHT22;16889;67.864;24.990;2023-02-11T07:40:12;-11.60;99.90
30063;DHT22;16889;67.864;24.990;2023-02-11T07:44:58;-11.30;99.90
30063;DHT22;16889;67.864;24.990;2023-02-11T07:49:44;-11.10;99.90
30063;DHT22;16889;67.864;24.990;2023-02-11T07:54:30;-10.90;99.90
30063;DHT22;16889;67.864;24.990;2023-02-11T07:59:16;-10.70;99.90
30063;DHT22;16889;67.864;24.990;2023-02-11T08:04:03;-10.60;99.90
30063;DHT22;16889;67.864;24.990;2023-02-11T08:08:49;-10.50;99.90
30063;DHT22;16889;67.864;24.990;2023-02-11T08:13:36;-10.70;99.90
30063;DHT22;16889;67.864;24.990;2023-02-11T08:18:22;-10.70;99.90
30063;DHT22;16889;67.864;24.990;2023-02-11T08:23:08;-10.50;99.90
30063;DHT22;16889;67.864;24.990;2023-02-11T08:27:54;-10.30;99.90
30063;DHT22;16889;67.864;24.990;2023-02-11T08:32:40;-10.00;99.90
30063;DHT22;16889;67.864;24.990;2023-02-11T08:37:25;-9.90;99.90
30063;DHT22;16889;67.864;24.990;2023-02-11T08:42:12;-9.70;99.90
30063;DHT22;16889;67.864;24.990;2023-02-11T08:47:00;-9.60;99.90
30063;DHT22;16889;67.864;24.990;2023-02-11T08:51:46;-9.40;99.90
30063;DHT22;16889;67.864;24.990;2023-02-11T08:56:32;-9.30;99.90
30063;DHT22;16889;67.864;24.990;2023-02-11T09:01:24;-9.10;99.90
30063;DHT22;16889;67.864;24.990;2023-02-11T09:06:12;-8.90;99.90
30063;DHT22;16889;67.864;24.990;2023-02-11T09:10:58;-8.90;99.90
30063;DHT22;16889;67.864;24.990;2023-02-11T09:15:45;-8.70;99.90
30063;DHT22;16889;67.864;24.990;2023-02-11T09:20:31;-8.30;99.90
30063;DHT22;16889;67.864;24.990;2023-02-11T09:25:17;-7.70;99.90
30063;DHT22;16889;67.864;24.990;2023-02-11T09:30:04;-7.10;99.90
30063;DHT22;16889;67.864;24.990;2023-02-11T09:34:50;-6.70;99.90
30063;DHT22;16889;67.864;24.990;2023-02-11T09:39:36;-6.40;99.90
30063;DHT22;16889;67.864;24.990;2023-02-11T09:44:28;-6.20;99.90
30063;DHT22;16889;67.864;24.990;2023-02-11T09:49:21;-5.90;99.90
30063;DHT22;16889;67.864;24.990;2023-02-11T09:54:29;-5.50;99.90
30063;DHT22;16889;67.864;24.990;2023-02-11T09:59:16;-5.40;99.90
30063;DHT22;16889;67.864;24.990;2023-02-11T10:24:09;-5.00;99.90
30063;DHT22;16889;67.864;24.990;2023-02-11T10:28:59;-4.80;99.90
30063;DHT22;16889;67.864;24.990;2023-02-11T10:34:08;-4.70;99.90
30063;DHT22;16889;67.864;24.990;2023-02-11T10:38:54;-4.60;99.90
30063;DHT22;16889;67.864;24.990;2023-02-11T10:43:41;-4.30;99.90
30063;DHT22;16889;67.864;24.990;2023-02-11T10:48:47;-4.00;99.90
30063;DHT22;16889;67.864;24.990;2023-02-11T10:53:37;-3.90;99.90
30063;DHT22;16889;67.864;24.990;2023-02-11T10:58:46;-3.60;99.90
30063;DHT22;16889;67.864;24.990;2023-02-11T11:03:47;-3.80;99.90
30063;DHT22;16889;67.864;24.990;2023-02-11T11:08:44;-4.00;99.90
30063;DHT22;16889;67.864;24.990;2023-02-11T11:18:24;-3.80;99.90
30063;DHT22;16889;67.864;24.990;2023-02-11T11:23:21;-3.70;99.90
30063;DHT22;16889;67.864;24.990;2023-02-11T11:28:24;-3.80;99.90
30063;DHT22;16889;67.864;24.990;2023-02-11T11:33:23;-4.00;99.90
30063;DHT22;16889;67.864;24.990;2023-02-11T11:38:13;-4.10;99.90
30063;DHT22;16889;67.864;24.990;2023-02-11T11:43:17;-4.00;99.90
30063;DHT22;16889;67.864;24.990;2023-02-11T11:48:17;-4.10;99.90
30063;DHT22;16889;67.864;24.990;2023-02-11T11:54:11;-4.20;99.90
30063;DHT22;16889;67.864;24.990;2023-02-11T11:58:27;-4.20;99.90
30063;DHT22;16889;67.864;24.990;2023-02-11T12:28:36;-4.50;99.90
30063;DHT22;16889;67.864;24.990;2023-02-11T12:43:36;-4.40;99.90
30063;DHT22;16889;67.864;24.990;2023-02-11T12:54:07;-4.40;99.90
30063;DHT22;16889;67.864;24.990;2023-02-11T12:58:59;-4.50;99.90
30063;DHT22;16889;67.864;24.990;2023-02-11T13:04:04;-4.50;99.90
30063;DHT22;16889;67.864;24.990;2023-02-11T13:08:58;-4.60;99.90
30063;DHT22;16889;67.864;24.990;2023-02-11T13:23:35;-4.80;99.90
30063;DHT22;16889;67.864;24.990;2023-02-11T13:28:46;-4.80;99.90
30063;DHT22;16889;67.864;24.990;2023-02-11T13:33:35;-4.90;99.90
30063;DHT22;16889;67.864;24.990;2023-02-11T13:38:22;-5.00;99.90
30063;DHT22;16889;67.864;24.990;2023-02-11T13:43:32;-5.10;99.90
30063;DHT22;16889;67.864;24.990;2023-02-11T13:48:23;-5.10;99.90
30063;DHT22;16889;67.864;24.990;2023-02-11T13:53:10;-5.10;99.90
30063;DHT22;16889;67.864;24.990;2023-02-11T14:08:19;-5.10;99.90
30063;DHT22;16889;67.864;24.990;2023-02-11T14:13:28;-5.20;99.90
30063;DHT22;16889;67.864;24.990;2023-02-11T14:23:33;-5.20;99.90
30063;DHT22;16889;67.864;24.990;2023-02-11T14:28:25;-5.20;99.90
30063;DHT22;16889;67.864;24.990;2023-02-11T14:38:32;-5.30;99.90
30063;DHT22;16889;67.864;24.990;2023-02-11T14:43:41;-5.30;99.90
30063;DHT22;16889;67.864;24.990;2023-02-11T14:48:32;-5.40;99.90
30063;DHT22;16889;67.864;24.990;2023-02-11T14:53:23;-5.40;99.90
30063;DHT22;16889;67.864;24.990;2023-02-11T14:58:22;-5.30;99.90
30063;DHT22;16889;67.864;24.990;2023-02-11T15:03:24;-5.40;99.90
30063;DHT22;16889;67.864;24.990;2023-02-11T15:08:13;-5.40;99.90
30063;DHT22;16889;67.864;24.990;2023-02-11T15:13:01;-5.30;99.90
30063;DHT22;16889;67.864;24.990;2023-02-11T15:17:48;-5.40;99.90
30063;DHT22;16889;67.864;24.990;2023-02-11T15:22:37;-5.60;99.90
30063;DHT22;16889;67.864;24.990;2023-02-11T15:27:23;-5.70;99.90
30063;DHT22;16889;67.864;24.990;2023-02-11T15:32:15;-5.80;99.90
30063;DHT22;16889;67.864;24.990;2023-02-11T15:37:02;-5.90;99.90
30063;DHT22;16889;67.864;24.990;2023-02-11T15:41:49;-5.90;99.90
30063;DHT22;16889;67.864;24.990;2023-02-11T15:46:37;-6.00;99.90
30063;DHT22;16889;67.864;24.990;2023-02-11T15:51:28;-6.00;99.90
30063;DHT22;16889;67.864;24.990;2023-02-11T15:56:40;-6.00;99.90
30063;DHT22;16889;67.864;24.990;2023-02-11T16:01:33;-6.00;99.90
30063;DHT22;16889;67.864;24.990;2023-02-11T16:16:33;-6.20;99.90
30063;DHT22;16889;67.864;24.990;2023-02-11T16:21:19;-6.30;99.90
30063;DHT22;16889;67.864;24.990;2023-02-11T16:26:31;-6.40;99.90
30063;DHT22;16889;67.864;24.990;2023-02-11T16:31:19;-6.50;99.90
30063;DHT22;16889;67.864;24.990;2023-02-11T16:36:12;-6.50;99.90
30063;DHT22;16889;67.864;24.990;2023-02-11T16:40:59;-6.60;99.90
30063;DHT22;16889;67.864;24.990;2023-02-11T16:45:45;-6.70;99.90
30063;DHT22;16889;67.864;24.990;2023-02-11T16:50:31;-6.80;99.90
30063;DHT22;16889;67.864;24.990;2023-02-11T16:55:18;-6.90;99.90
30063;DHT22;16889;67.864;24.990;2023-02-11T17:00:05;-6.80;99.90
30063;DHT22;16889;67.864;24.990;2023-02-11T17:04:53;-6.90;99.90
30063;DHT22;16889;67.864;24.990;2023-02-11T17:09:39;-6.90;99.90
30063;DHT22;16889;67.864;24.990;2023-02-11T17:14:25;-6.90;99.90
30063;DHT22;16889;67.864;24.990;2023-02-11T17:19:14;-6.90;99.90
30063;DHT22;16889;67.864;24.990;2023-02-11T17:24:00;-6.90;99.90
30063;DHT22;16889;67.864;24.990;2023-02-11T17:28:46;-6.90;99.90
30063;DHT22;16889;67.864;24.990;2023-02-11T17:33:32;-6.90;99.90
30063;DHT22;16889;67.864;24.990;2023-02-11T17:38:18;-6.90;99.90
30063;DHT22;16889;67.864;24.990;2023-02-11T17:43:04;-6.90;99.90
30063;DHT22;16889;67.864;24.990;2023-02-11T17:47:50;-6.90;99.90
30063;DHT22;16889;67.864;24.990;2023-02-11T17:52:36;-6.90;99.90
30063;DHT22;16889;67.864;24.990;2023-02-11T17:57:22;-7.00;99.90
30063;DHT22;16889;67.864;24.990;2023-02-11T18:02:10;-7.00;99.90
30063;DHT22;16889;67.864;24.990;2023-02-11T18:06:57;-7.10;99.90
30063;DHT22;16889;67.864;24.990;2023-02-11T18:11:43;-7.10;99.90
30063;DHT22;16889;67.864;24.990;2023-02-11T18:16:29;-7.10;99.90
30063;DHT22;16889;67.864;24.990;2023-02-11T18:21:18;-7.10;99.90
30063;DHT22;16889;67.864;24.990;2023-02-11T18:26:09;-7.10;99.90
30063;DHT22;16889;67.864;24.990;2023-02-11T18:30:59;-7.00;99.90
30063;DHT22;16889;67.864;24.990;2023-02-11T18:35:46;-7.00;99.90
30063;DHT22;16889;67.864;24.990;2023-02-11T18:40:33;-7.00;99.90
30063;DHT22;16889;67.864;24.990;2023-02-11T18:45:20;-6.90;99.90
30063;DHT22;16889;67.864;24.990;2023-02-11T18:50:07;-6.90;99.90
30063;DHT22;16889;67.864;24.990;2023-02-11T18:54:53;-6.80;99.90
30063;DHT22;16889;67.864;24.990;2023-02-11T18:59:39;-6.80;99.90
30063;DHT22;16889;67.864;24.990;2023-02-11T19:04:25;-6.80;99.90
30063;DHT22;16889;67.864;24.990;2023-02-11T19:09:15;-6.80;99.90
30063;DHT22;16889;67.864;24.990;2023-02-11T19:14:04;-6.80;99.90
30063;DHT22;16889;67.864;24.990;2023-02-11T19:18:55;-6.80;99.90
30063;DHT22;16889;67.864;24.990;2023-02-11T19:23:41;-6.90;99.90
30063;DHT22;16889;67.864;24.990;2023-02-11T19:28:27;-6.90;99.90
30063;DHT22;16889;67.864;24.990;2023-02-11T19:33:15;-6.90;99.90
30063;DHT22;16889;67.864;24.990;2023-02-11T19:38:03;-6.80;99.90
30063;DHT22;16889;67.864;24.990;2023-02-11T19:42:49;-6.70;99.90
30063;DHT22;16889;67.864;24.990;2023-02-11T19:47:35;-6.60;99.90
30063;DHT22;16889;67.864;24.990;2023-02-11T19:52:21;-6.60;99.90
30063;DHT22;16889;67.864;24.990;2023-02-11T19:57:07;-6.60;99.90
30063;DHT22;16889;67.864;24.990;2023-02-11T20:01:53;-6.50;99.90
30063;DHT22;16889;67.864;24.990;2023-02-11T20:06:39;-6.50;99.90
30063;DHT22;16889;67.864;24.990;2023-02-11T20:11:27;-6.40;99.90
30063;DHT22;16889;67.864;24.990;2023-02-11T20:16:16;-6.40;99.90
30063;DHT22;16889;67.864;24.990;2023-02-11T20:21:10;-6.30;99.90
30063;DHT22;16889;67.864;24.990;2023-02-11T20:25:56;-6.10;99.90
30063;DHT22;16889;67.864;24.990;2023-02-11T20:30:42;-6.00;99.90
30063;DHT22;16889;67.864;24.990;2023-02-11T20:35:28;-5.90;99.90
30063;DHT22;16889;67.864;24.990;2023-02-11T20:40:14;-5.90;99.90
30063;DHT22;16889;67.864;24.990;2023-02-11T20:45:00;-6.00;99.90
30063;DHT22;16889;67.864;24.990;2023-02-11T20:49:46;-6.10;99.90
30063;DHT22;16889;67.864;24.990;2023-02-11T20:54:31;-6.20;99.90
30063;DHT22;16889;67.864;24.990;2023-02-11T20:59:18;-6.30;99.90
30063;DHT22;16889;67.864;24.990;2023-02-11T21:04:11;-6.40;99.90
30063;DHT22;16889;67.864;24.990;2023-02-11T21:08:57;-6.50;99.90
30063;DHT22;16889;67.864;24.990;2023-02-11T21:13:43;-6.50;99.90
30063;DHT22;16889;67.864;24.990;2023-02-11T21:18:29;-6.50;99.90
30063;DHT22;16889;67.864;24.990;2023-02-11T21:23:16;-6.60;99.90
30063;DHT22;16889;67.864;24.990;2023-02-11T21:28:02;-6.70;99.90
30063;DHT22;16889;67.864;24.990;2023-02-11T21:32:48;-6.70;99.90
30063;DHT22;16889;67.864;24.990;2023-02-11T21:37:34;-6.60;99.90
30063;DHT22;16889;67.864;24.990;2023-02-11T21:42:20;-6.60;99.90
30063;DHT22;16889;67.864;24.990;2023-02-11T21:47:06;-6.50;99.90
30063;DHT22;16889;67.864;24.990;2023-02-11T21:51:51;-6.40;99.90
30063;DHT22;16889;67.864;24.990;2023-02-11T21:56:37;-6.10;99.90
30063;DHT22;16889;67.864;24.990;2023-02-11T22:01:29;-5.90;99.90
30063;DHT22;16889;67.864;24.990;2023-02-11T22:06:25;-5.90;99.90
30063;DHT22;16889;67.864;24.990;2023-02-11T22:11:12;-5.90;99.90
30063;DHT22;16889;67.864;24.990;2023-02-11T22:16:04;-6.10;99.90
30063;DHT22;16889;67.864;24.990;2023-02-11T22:21:12;-6.20;99.90
30063;DHT22;16889;67.864;24.990;2023-02-11T22:26:01;-6.30;99.90
30063;DHT22;16889;67.864;24.990;2023-02-11T22:30:54;-6.40;99.90
30063;DHT22;16889;67.864;24.990;2023-02-11T22:35:40;-6.50;99.90
30063;DHT22;16889;67.864;24.990;2023-02-11T22:40:26;-6.50;99.90
30063;DHT22;16889;67.864;24.990;2023-02-11T22:45:12;-6.60;99.90
30063;DHT22;16889;67.864;24.990;2023-02-11T22:49:58;-6.70;99.90
30063;DHT22;16889;67.864;24.990;2023-02-11T22:54:44;-6.90;99.90
30063;DHT22;16889;67.864;24.990;2023-02-11T22:59:30;-7.00;99.90
30063;DHT22;16889;67.864;24.990;2023-02-11T23:04:16;-7.00;99.90
30063;DHT22;16889;67.864;24.990;2023-02-11T23:09:04;-7.00;99.90
30063;DHT22;16889;67.864;24.990;2023-02-11T23:13:52;-7.00;99.90
30063;DHT22;16889;67.864;24.990;2023-02-11T23:18:40;-7.00;99.90
30063;DHT22;16889;67.864;24.990;2023-02-11T23:23:27;-6.90;99.90
30063;DHT22;16889;67.864;24.990;2023-02-11T23:28:13;-6.80;99.90
30063;DHT22;16889;67.864;24.990;2023-02-11T23:32:59;-6.70;99.90
30063;DHT22;16889;67.864;24.990;2023-02-11T23:37:44;-6.70;99.90
30063;DHT22;16889;67.864;24.990;2023-02-11T23:42:31;-6.60;99.90
30063;DHT22;16889;67.864;24.990;2023-02-11T23:47:16;-6.60;99.90
30063;DHT22;16889;67.864;24.990;2023-02-11T23:52:02;-6.60;99.90
30063;DHT22;16889;67.864;24.990;2023-02-11T23:56:48;-6.60;99.90
